Aviation Digital Data Service (ADDS)

Output produced by TAFs form (0211 UTC 24 November 2017)
found at http://www.aviationweather.gov/adds/tafs/
 
EGPH 240150Z 25006KT CAVOK 01/M00 Q1002
TAF EGPH 232256Z 2400/2424 24008KT 9999 FEW040 
     TEMPO 2402/2417 6000 -SHRASN BKN012 
     PROB40 2402/2407 3000 SHRASN BKN004